CMA CGM Turquoise — A8RB5 — position and weather

sailwx.info

Track history (hours):
 
Tides and Currents Weather Stations Pressure Air Temp Water Temp Dewpoint Dewpoint Depression Visibility Wind Speed Wind Dir Waves Ship Positions

CMA CGM Turquoise

Last reported at 2014-Aug-30 10:26 UTC. Time now 2014-Sep-24 02:28 UTC.
Position S 23°25' W 041°17'.
Warning: this ship's position is 24 days out of date.

Length 258 m; draft 12.1 m.

Type: Cargo ship. MMSI: 636014059.

Date/timePositionNaut miles runAvg speedWind from/ knotsBaromVisibWave heightAir tempDewpointWater temp
2014-Aug-30 10:26S 23°25' W 041°17'280 5.7
2014-Aug-28 09:33S 24°02' W 046°21'6 6.0
2014-Aug-28 08:33S 23°56' W 046°20'0 0.4
2014-Aug-28 07:30S 23°56' W 046°20'0 0.0
2014-Aug-27 11:30S 23°56' W 046°20'0 0.0
2014-Aug-27 10:33S 23°56' W 046°20'0 0.0
2014-Aug-27 09:27S 23°56' W 046°20'0 0.0
2014-Aug-27 08:29S 23°56' W 046°20'0 0.0
2014-Aug-27 07:32S 23°56' W 046°20'0 0.0
2014-Aug-27 06:31S 23°56' W 046°20'0 0.0
2014-Aug-27 05:31S 23°56' W 046°20'0 0.0
2014-Aug-27 04:32S 23°56' W 046°20'0 0.0
2014-Aug-27 03:31S 23°56' W 046°20'0 0.0
2014-Aug-27 02:31S 23°56' W 046°20'0 0.0
2014-Aug-27 01:27S 23°56' W 046°20'0 0.2
2014-Aug-27 00:33S 23°56' W 046°20'0 0.0
2014-Aug-26 23:32S 23°56' W 046°20'0 0.0
2014-Aug-26 22:32S 23°56' W 046°20'0 0.0
2014-Aug-26 21:32S 23°56' W 046°20'0 0.0
2014-Aug-26 20:31S 23°56' W 046°20'0 0.0
2014-Aug-26 19:25S 23°56' W 046°20'0 0.1
2014-Aug-26 18:34S 23°55' W 046°20'0 0.1
2014-Aug-26 17:33S 23°56' W 046°20'0 0.0
2014-Aug-26 16:17S 23°56' W 046°20'0 0.0
2014-Aug-26 15:29S 23°56' W 046°20'0 0.0
2014-Aug-26 14:31S 23°56' W 046°20'0 0.1
2014-Aug-26 13:34S 23°55' W 046°20'4 4.2
2014-Aug-26 12:34S 23°60' W 046°20'9 8.8
2014-Aug-26 11:33S 24°08' W 046°22'7 7.3
2014-Aug-26 10:33S 24°13' W 046°16'0 0.0
2014-Aug-26 09:26S 24°13' W 046°16'3 3.5
2014-Aug-26 08:31S 24°16' W 046°17'  
Track history (hours):
 
Tides and Currents Weather Stations Pressure Air Temp Water Temp Dewpoint Dewpoint Depression Visibility Wind Speed Wind Dir Waves Ship Positions

CMA CGM Turquoise

Last reported at 2014-Aug-30 10:26 UTC. Time now 2014-Sep-24 02:28 UTC.
Position S 23°25' W 041°17'.
Warning: this ship's position is 24 days out of date.

Length 258 m; draft 12.1 m.

Type: Cargo ship. MMSI: 636014059.

Date/timePositionNaut miles runAvg speedWind from/ knotsBaromVisibWave heightAir tempDewpointWater temp
2014-Aug-30 10:26S 23°25' W 041°17'280 5.7
2014-Aug-28 09:33S 24°02' W 046°21'6 6.0
2014-Aug-28 08:33S 23°56' W 046°20'0 0.4
2014-Aug-28 07:30S 23°56' W 046°20'0 0.0
2014-Aug-27 11:30S 23°56' W 046°20'0 0.0
2014-Aug-27 10:33S 23°56' W 046°20'0 0.0
2014-Aug-27 09:27S 23°56' W 046°20'0 0.0
2014-Aug-27 08:29S 23°56' W 046°20'0 0.0
2014-Aug-27 07:32S 23°56' W 046°20'0 0.0
2014-Aug-27 06:31S 23°56' W 046°20'0 0.0
2014-Aug-27 05:31S 23°56' W 046°20'0 0.0
2014-Aug-27 04:32S 23°56' W 046°20'0 0.0
2014-Aug-27 03:31S 23°56' W 046°20'0 0.0
2014-Aug-27 02:31S 23°56' W 046°20'0 0.0
2014-Aug-27 01:27S 23°56' W 046°20'0 0.2
2014-Aug-27 00:33S 23°56' W 046°20'0 0.0
2014-Aug-26 23:32S 23°56' W 046°20'0 0.0
2014-Aug-26 22:32S 23°56' W 046°20'0 0.0
2014-Aug-26 21:32S 23°56' W 046°20'0 0.0
2014-Aug-26 20:31S 23°56' W 046°20'0 0.0
2014-Aug-26 19:25S 23°56' W 046°20'0 0.1
2014-Aug-26 18:34S 23°55' W 046°20'0 0.1
2014-Aug-26 17:33S 23°56' W 046°20'0 0.0
2014-Aug-26 16:17S 23°56' W 046°20'0 0.0
2014-Aug-26 15:29S 23°56' W 046°20'0 0.0
2014-Aug-26 14:31S 23°56' W 046°20'0 0.1
2014-Aug-26 13:34S 23°55' W 046°20'4 4.2
2014-Aug-26 12:34S 23°60' W 046°20'9 8.8
2014-Aug-26 11:33S 24°08' W 046°22'7 7.3
2014-Aug-26 10:33S 24°13' W 046°16'0 0.0
2014-Aug-26 09:26S 24°13' W 046°16'3 3.5
2014-Aug-26 08:31S 24°16' W 046°17'  

Dump ship's entire track history